Latest Weather Observations for Moorabbin Airport

IDV60901

Issued at 2:11 pm EST Wednesday 26 April 2017 (issued every 10 minutes, with the page automatically refreshed every 10 minutes)

About weather observations | Map of Melbourne area stations | Latest observations for Melbourne area | Other Formats
Station Details ID: 086077 Name: MOORABBIN AIRPORT Lat: -37.98 Lon: 145.10 Height: 12.1 m
Data from the previous 72 hours. | See also: Recent months at Moorabbin Airport
Date/Time
EST
Temp
°C
App
Temp
°C
Dew
Point
°C
Rel
Hum
%
Delta-T
°C
Wind Press
QNH
hPa
Press
MSL
hPa
Rain since
9am
mm
Dir  Spd
km/h
Gust
km/h
Spd
kts
Gust
kts
26/02:00pm 13.6 5.7 2.5 47 4.9 SSW 33 52 18 28 1013.8 1013.8 0.2
26/01:34pm 13.5 4.7 3.8 52 4.4 SSW 39 57 21 31 1013.5 1013.5 0.2
26/01:30pm 12.7 4.0 4.2 56 3.9 SSW 39 56 21 30 1013.4 1013.4 0.2
26/01:28pm 13.2 5.0 4.9 57 3.8 SSW 37 56 20 30 1013.4 1013.4 0.2
26/01:00pm 14.3 6.4 4.3 51 4.6 SSW 35 52 19 28 1013.1 1013.1 0.2
26/12:30pm 14.8 6.8 3.9 48 5.0 SSW 35 54 19 29 1012.8 1012.8 0.2
26/12:08pm 13.6 5.6 3.7 51 4.5 SSW 35 54 19 29 1012.5 1012.5 0.2
26/12:00pm 14.3 6.7 3.7 49 4.8 SSW 33 48 18 26 1012.4 1012.4 0.2
26/11:30am 14.4 6.3 5.2 54 4.3 SSW 37 50 20 27 1012.2 1012.2 0.2
26/11:00am 14.3 6.2 5.4 55 4.2 SSW 37 56 20 30 1011.6 1011.6 0.2
26/10:30am 14.3 6.8 6.2 58 3.9 SSW 35 54 19 29 1011.1 1011.1 0.2
26/10:00am 13.7 6.7 6.1 60 3.6 SSW 32 52 17 28 1010.6 1010.6 0.0
26/09:30am 14.2 7.4 7.7 65 3.2 SSW 33 52 18 28 1010.2 1010.2 0.0
26/09:21am 13.5 6.6 7.3 66 3.0 S 33 52 18 28 1010.0 1010.0 0.0
26/09:00am 12.8 5.8 7.0 68 2.8 S 33 48 18 26 1009.6 1009.6 25.4
26/08:30am 11.4 7.4 8.4 82 1.5 SSE 19 32 10 17 1009.2 1009.2 25.4
26/08:00am 11.5 6.6 8.4 81 1.5 S 24 32 13 17 1008.6 1008.6 25.4
26/07:47am 11.4 5.7 8.3 81 1.5 S 28 43 15 23 1008.5 1008.5 25.4
26/07:30am 10.6 8.2 8.5 87 1.0 SW 11 32 6 17 1008.3 1008.3 25.4
26/07:28am 10.8 8.8 8.7 87 1.0 SW 9 17 5 9 1008.2 1008.2 25.4
26/07:19am 10.6 7.8 8.5 87 1.0 WSW 13 20 7 11 1007.8 1007.8 24.6
26/07:00am 10.2 4.0 7.8 85 1.2 WSW 30 48 16 26 1007.8 1007.8 24.0
26/06:57am 10.2 3.6 7.6 84 1.2 WSW 32 48 17 26 1007.8 1007.8 23.6
26/06:30am 11.6 6.8 8.8 83 1.4 SSW 24 35 13 19 1007.3 1007.3 22.8
26/06:17am 11.2 6.8 8.8 85 1.2 SW 22 33 12 18 1007.1 1007.1 22.8
26/06:13am 11.2 6.4 8.8 85 1.2 SW 24 33 13 18 1007.0 1007.0 22.8
26/06:02am 10.6 6.6 8.9 89 0.8 SW 20 37 11 20 1006.9 1006.9 22.6
26/06:00am 10.9 6.9 9.2 89 0.9 SW 20 33 11 18 1006.8 1006.8 22.4
26/05:53am 10.8 5.2 8.9 88 0.9 SW 28 46 15 25 1006.8 1006.8 21.4
26/05:43am 11.0 5.8 8.8 86 1.1 SW 26 39 14 21 1006.5 1006.5 18.0
26/05:36am 11.2 6.4 8.9 86 1.1 SW 24 37 13 20 1006.3 1006.3 17.4
26/05:30am 11.1 6.3 8.8 86 1.1 SSW 24 43 13 23 1006.2 1006.2 17.0
26/05:15am 11.3 5.0 9.6 89 0.9 SW 33 54 18 29 1006.1 1006.1 15.8
26/05:00am 11.3 5.2 9.7 90 0.8 SSW 32 46 17 25 1005.4 1005.4 14.8
26/04:42am 11.6 6.4 10.3 92 0.7 S 28 46 15 25 1005.2 1005.2 13.6
26/04:30am 11.2 5.1 9.6 90 0.8 SSW 32 46 17 25 1005.0 1005.0 12.6
26/04:24am 11.4 5.7 9.8 90 0.8 SSW 30 46 16 25 1004.5 1004.5 11.6
26/04:09am 11.6 6.3 9.9 89 0.9 SSW 28 46 15 25 1004.0 1004.0 10.8
26/04:08am 11.7 6.4 9.9 89 0.9 SSW 28 46 15 25 1004.0 1004.0 10.6
26/04:02am 11.9 5.9 10.1 89 0.9 SSW 32 48 17 26 1004.0 1004.0 10.4
26/04:00am 11.8 5.6 10.2 90 0.8 SSW 33 48 18 26 1003.9 1003.9 10.4
26/03:49am 11.7 6.1 10.3 91 0.7 SSW 30 48 16 26 1003.8 1003.8 10.0
26/03:48am 11.7 5.8 10.3 91 0.7 SSW 32 48 17 26 1003.8 1003.8 10.0
26/03:37am 12.8 9.1 9.4 80 1.7 NW 19 39 10 21 1003.1 1003.1 8.2
26/03:30am 13.2 9.9 9.6 79 1.8 N 17 22 9 12 1002.9 1002.9 6.6
26/03:00am 13.1 9.8 9.7 80 1.7 NNW 17 24 9 13 1003.7 1003.7 6.6
26/02:30am 12.8 9.9 9.6 81 1.6 N 15 19 8 10 1003.4 1003.4 6.6
26/02:00am 13.1 10.7 10.1 82 1.6 N 13 19 7 10 1003.7 1003.7 6.6
26/01:30am 13.4 11.2 10.8 84 1.4 N 13 19 7 10 1004.0 1004.0 6.6
26/01:00am 13.2 11.2 11.4 89 1.0 NNW 13 15 7 8 1004.2 1004.2 6.6
26/12:30am 12.8 11.5 11.2 90 0.8 N 9 13 5 7 1004.6 1004.6 6.6
26/12:00am 12.0 9.6 10.2 89 0.9 N 13 15 7 8 1004.9 1004.9 6.6
 
Date/Time
EST
Temp
°C
App
Temp
°C
Dew
Point
°C
Rel
Hum
%
Delta-T
°C
Wind Press
QNH
hPa
Press
MSL
hPa
Rain since
9am
mm
Dir  Spd
km/h
Gust
km/h
Spd
kts
Gust
kts
25/11:30pm 13.0 11.6 10.9 87 1.1 NNW 9 11 5 6 1005.3 1005.3 6.6
25/11:00pm 13.8 11.9 11.7 87 1.1 NNW 13 17 7 9 1005.3 1005.3 6.6
25/10:30pm 13.8 11.9 11.8 88 1.1 NW 13 19 7 10 1005.4 1005.4 6.6
25/10:00pm 13.8 11.5 11.8 88 1.1 NW 15 22 8 12 1005.6 1005.6 6.6
25/09:46pm 13.7 11.0 11.8 88 1.0 NW 17 24 9 13 1005.8 1005.8 6.6
25/09:30pm 14.2 10.3 12.1 87 1.1 WNW 24 35 13 19 1005.9 1005.9 6.2
25/09:24pm 14.9 11.6 12.8 87 1.2 NNW 22 30 12 16 1005.9 1005.9 4.8
25/09:00pm 14.9 11.7 13.1 89 1.0 N 22 28 12 15 1004.7 1004.7 3.6
25/08:30pm 14.7 13.0 13.7 94 0.6 N 15 20 8 11 1005.4 1005.4 3.4
25/08:00pm 13.5 11.8 12.4 93 0.6 N 13 13 7 7 1005.5 1005.5 3.4
25/07:30pm 13.7 12.4 12.4 92 0.7 NNE 11 13 6 7 1005.8 1005.8 3.4
25/07:00pm 13.9 12.5 12.3 90 0.9 N 11 13 6 7 1005.9 1005.9 3.4
25/06:30pm 14.7 14.5 12.9 89 1.0 N 6 7 3 4 1006.2 1006.2 3.4
25/06:00pm 14.6 13.6 12.3 86 1.3 N 9 9 5 5 1006.2 1006.2 3.4
25/05:30pm 15.7 15.4 12.8 83 1.6 NNE 6 7 3 4 1006.2 1006.2 3.4
25/05:00pm 16.3 15.6 13.2 82 1.7 NNE 9 11 5 6 1006.3 1006.3 3.4
25/04:30pm 16.1 16.7 13.0 82 1.7 NNW 2 7 1 4 1006.7 1006.7 3.4
25/04:00pm 15.8 16.4 13.1 84 1.5 WSW 2 7 1 4 1006.7 1006.7 3.4
25/03:50pm 15.6 15.1 12.7 83 1.6 SW 7 9 4 5 1006.8 1006.8 3.4
25/03:38pm 15.7 14.4 12.5 81 1.8 SW 11 17 6 9 1006.8 1006.8 3.4
25/03:30pm 16.3 15.0 12.5 78 2.1 SW 11 17 6 9 1006.8 1006.8 3.2
25/03:00pm 16.9 14.5 12.8 77 2.3 SW 17 20 9 11 1006.8 1006.8 3.2
25/02:30pm 17.6 15.0 13.7 78 2.2 SW 20 26 11 14 1006.7 1006.7 3.2
25/02:00pm 16.4 15.2 13.9 85 1.4 SW 13 20 7 11 1006.8 1006.8 3.2
25/01:35pm 15.5 12.2 14.0 91 0.8 WSW 24 35 13 19 1007.2 1007.2 3.2
25/01:30pm 15.7 12.6 14.6 93 0.6 WSW 24 35 13 19 1007.2 1007.2 3.2
25/01:25pm 15.8 13.6 14.8 94 0.6 WSW 20 33 11 18 1007.2 1007.2 3.2
25/01:04pm 15.8 13.6 15.0 95 0.5 W 20 30 11 16 1007.3 1007.3 2.4
25/01:00pm 15.9 14.0 15.1 95 0.5 W 19 30 10 16 1007.2 1007.2 2.0
25/12:30pm 16.2 14.4 15.4 95 0.5 SW 19 24 10 13 1007.4 1007.4 1.6
25/12:23pm 16.7 15.5 16.1 96 0.4 WSW 17 24 9 13 1007.5 1007.5 1.6
25/12:14pm 16.6 15.8 16.0 96 0.4 WSW 15 24 8 13 1007.6 1007.6 1.6
25/12:00pm 16.0 15.2 15.2 95 0.5 WSW 13 17 7 9 1007.8 1007.8 1.6
25/11:47am 15.6 12.9 14.6 94 0.6 SW 22 30 12 16 1007.9 1007.9 0.8
25/11:45am 15.6 12.9 14.5 93 0.6 SW 22 30 12 16 1007.9 1007.9 0.6
25/11:30am 15.8 12.8 14.7 93 0.6 SW 24 33 13 18 1007.9 1007.9 0.4
25/11:00am 16.6 15.6 15.6 94 0.6 WSW 15 22 8 12 1008.0 1008.0 0.0
25/10:30am 15.0 12.5 13.4 90 0.9 WSW 19 32 10 17 1008.0 1008.0 0.0
25/10:00am 16.3 14.3 15.0 92 0.8 W 19 32 10 17 1007.9 1007.9 0.0
25/09:32am 16.3 14.8 15.2 93 0.6 WSW 17 26 9 14 1007.9 1007.9 0.0
25/09:31am 16.4 14.9 15.3 93 0.6 WSW 17 26 9 14 1007.9 1007.9 0.0
25/09:30am 16.4 14.5 15.3 93 0.6 WSW 19 26 10 14 1007.8 1007.8 0.0
25/09:00am 16.5 14.6 15.7 95 0.5 W 20 30 11 16 1007.8 1007.8 20.8
25/08:30am 16.4 15.1 15.9 97 0.3 W 17 28 9 15 1007.5 1007.5 20.8
25/08:07am 16.5 15.6 15.9 96 0.4 WNW 15 26 8 14 1007.4 1007.4 20.8
25/08:00am 16.5 14.7 15.9 96 0.4 W 20 32 11 17 1007.2 1007.2 20.8
25/07:30am 17.1 16.6 16.8 98 0.2 NNW 15 20 8 11 1006.8 1006.8 20.6
25/07:00am 17.0 16.0 16.7 98 0.2 N 17 20 9 11 1006.6 1006.6 20.4
25/06:30am 16.9 15.9 16.6 98 0.2 N 17 24 9 13 1006.6 1006.6 20.2
25/06:00am 17.2 15.7 16.7 97 0.3 N 20 26 11 14 1006.5 1006.5 19.2
25/05:30am 17.5 15.8 17.3 99 0.1 N 22 30 12 16 1006.7 1006.7 18.8
25/05:00am 17.6 16.4 17.6 100 0.0 N 20 26 11 14 1006.7 1006.7 18.2
25/04:30am 17.0 16.2 17.0 100 0.0 N 17 24 9 13 1006.6 1006.6 18.2
25/04:00am 17.1 16.7 17.1 100 0.0 N 15 20 8 11 1007.0 1007.0 17.8
25/03:30am 17.0 16.9 17.0 100 0.0 N 13 17 7 9 1007.3 1007.3 17.2
25/03:01am 17.0 17.3 17.0 100 0.0 N 11 13 6 7 1007.7 1007.7 16.8
25/03:00am 17.0 17.3 17.0 100 0.0 N 11 13 6 7 1007.7 1007.7 16.6
25/02:30am 17.1 17.8 17.1 100 0.0 NNW 9 13 5 7 1008.2 1008.2 16.2
25/02:13am 17.1 17.8 17.1 100 0.0 NNW 9 13 5 7 1008.5 1008.5 15.8
25/02:00am 17.2 17.6 17.2 100 0.0 N 11 15 6 8 1008.7 1008.7 15.8
25/01:54am 17.1 17.4 17.1 100 0.0 N 11 15 6 8 1008.7 1008.7 15.6
25/01:30am 17.1 18.2 17.1 100 0.0 NE 7 9 4 5 1009.0 1009.0 15.0
25/01:00am 17.2 18.5 17.0 99 0.1 NE 6 9 3 5 1009.6 1009.6 13.4
25/12:30am 17.2 18.5 17.0 99 0.1 NW 6 7 3 4 1010.4 1010.4 10.2
25/12:00am 17.1 17.6 16.6 97 0.3 SW 9 11 5 6 1010.6 1010.6 6.2
 
Date/Time
EST
Temp
°C
App
Temp
°C
Dew
Point
°C
Rel
Hum
%
Delta-T
°C
Wind Press
QNH
hPa
Press
MSL
hPa
Rain since
9am
mm
Dir  Spd
km/h
Gust
km/h
Spd
kts
Gust
kts
24/11:30pm 17.4 18.4 16.8 96 0.4 SSE 7 11 4 6 1010.6 1010.6 2.8
24/11:00pm 17.5 19.8 16.7 95 0.5 CALM 0 0 0 0 1011.4 1011.4 1.6
24/10:38pm 17.6 18.5 16.6 94 0.6 ENE 7 11 4 6 1011.6 1011.6 1.0
24/10:30pm 17.5 18.0 16.5 94 0.6 ESE 9 11 5 6 1011.5 1011.5 0.6
24/10:00pm 17.5 18.9 16.4 93 0.7 SE 4 7 2 4 1011.6 1011.6 0.6
24/09:30pm 17.6 18.1 16.5 93 0.7 S 9 11 5 6 1012.0 1012.0 0.6
24/09:00pm 17.9 18.7 16.4 91 0.9 S 7 9 4 5 1012.5 1012.5 0.6
24/08:30pm 18.0 18.4 16.2 89 1.1 SSE 9 9 5 5 1012.7 1012.7 0.6
24/08:00pm 18.5 19.1 15.7 84 1.7 SE 7 7 4 4 1013.2 1013.2 0.2
24/07:30pm 19.0 19.2 14.7 76 2.5 SE 7 9 4 5 1013.5 1013.5 0.0
24/07:00pm 20.5 20.6 14.4 68 3.6 NE 7 11 4 6 1013.2 1013.2 0.0
24/06:30pm 20.8 21.1 15.1 70 3.4 NNE 7 13 4 7 1013.2 1013.2 0.0
24/06:00pm 20.2 20.4 14.1 68 3.5 SSW 6 9 3 5 1013.4 1013.4 0.0
24/05:30pm 21.7 21.5 14.6 64 4.2 NNE 9 11 5 6 1013.5 1013.5 0.0
24/05:00pm 22.2 20.6 13.8 59 4.9 N 15 22 8 12 1013.6 1013.6 0.0
24/04:30pm 23.0 21.6 13.5 55 5.5 N 13 24 7 13 1013.7 1013.7 0.0
24/04:00pm 22.8 21.6 14.1 58 5.1 N 13 17 7 9 1014.0 1014.0 0.0
24/03:30pm 23.5 22.1 14.5 57 5.3 NNW 15 22 8 12 1014.5 1014.5 0.0
24/03:00pm 23.4 22.0 14.4 57 5.3 NNW 15 20 8 11 1014.8 1014.8 0.0
24/02:30pm 22.7 20.7 14.0 58 5.1 N 17 22 9 12 1015.1 1015.1 0.0
24/02:00pm 23.2 21.4 14.5 58 5.1 N 17 22 9 12 1015.4 1015.4 0.0
24/01:30pm 22.8 21.0 14.4 59 4.9 N 17 24 9 13 1015.7 1015.7 0.0
24/01:00pm 23.3 22.4 15.9 63 4.5 N 15 20 8 11 1016.3 1016.3 0.0
24/12:30pm 22.3 20.8 15.4 65 4.1 N 17 22 9 12 1017.0 1017.0 0.0
24/12:00pm 21.7 20.6 15.3 67 3.8 N 15 20 8 11 1017.7 1017.7 0.0
24/11:30am 20.5 20.9 15.3 72 3.1 N 7 15 4 8 1018.4 1018.4 0.0
24/11:00am 19.4 19.0 15.3 77 2.4 NE 11 15 6 8 1018.8 1018.8 0.0
24/10:30am 18.8 19.1 15.9 83 1.7 NE 9 11 5 6 1019.4 1019.4 0.0
24/10:00am 17.9 18.7 16.4 91 0.9 N 7 11 4 6 1020.0 1020.0 0.0
24/09:30am 16.6 16.0 15.6 94 0.6 NNE 13 17 7 9 1020.3 1020.3 0.0
24/09:00am 16.5 17.1 15.9 96 0.4 NNW 7 11 4 6 1020.7 1020.7 0.2
24/08:30am 16.2 16.3 15.6 96 0.4 N 9 11 5 6 1020.7 1020.7 0.2
24/08:00am 15.9 16.3 15.3 96 0.3 N 7 9 4 5 1020.6 1020.6 0.0
24/07:30am 15.9 16.0 15.4 97 0.3 N 9 9 5 5 1020.7 1020.7 0.0
24/07:00am 15.9 16.0 15.4 97 0.3 NNE 9 11 5 6 1020.4 1020.4 0.0
24/06:30am 15.6 15.6 15.1 97 0.3 N 9 11 5 6 1020.6 1020.6 0.0
24/06:00am 15.4 16.2 14.9 97 0.3 NNE 4 7 2 4 1020.6 1020.6 0.0
24/05:30am 15.5 16.0 15.0 97 0.3 E 6 7 3 4 1020.7 1020.7 0.0
24/05:00am 15.6 16.5 15.1 97 0.3 NE 4 6 2 3 1020.7 1020.7 0.0
24/04:30am 15.8 16.3 15.5 98 0.2 NE 7 9 4 5 1020.7 1020.7 0.0
24/04:00am 16.0 16.8 15.8 99 0.1 ENE 6 7 3 4 1020.8 1020.8 0.0
24/03:30am 16.1 18.1 15.9 99 0.1 CALM 0 0 0 0 1020.9 1020.9 0.0
24/03:29am 16.2 18.2 16.0 99 0.1 CALM 0 0 0 0 1020.8 1020.8 0.0
24/03:19am 16.0 17.9 15.8 99 0.1 CALM 0 0 0 0 1020.9 1020.9 0.0
24/03:06am 16.1 17.7 15.9 99 0.1 NE 2 7 1 4 1021.1 1021.1 0.0
24/03:00am 16.1 16.9 15.9 99 0.1 NE 6 7 3 4 1021.0 1021.0 0.0
24/02:38am 16.2 16.9 16.2 100 0.0 NNE 7 11 4 6 1021.3 1021.3 0.0
24/02:30am 16.1 16.4 16.1 100 0.0 NE 9 11 5 6 1021.2 1021.2 0.0
24/02:24am 16.1 16.8 16.1 100 0.0 NE 7 9 4 5 1021.2 1021.2 0.0
24/02:22am 16.1 16.8 16.1 100 0.0 NE 7 9 4 5 1021.3 1021.3 0.0
24/02:00am 16.1 16.4 15.9 99 0.1 NE 9 11 5 6 1021.5 1021.5 0.0
24/01:59am 16.0 16.2 15.8 99 0.1 NE 9 11 5 6 1021.5 1021.5 0.0
24/01:30am 16.0 16.8 15.8 99 0.1 ESE 6 7 3 4 1021.7 1021.7 0.0
24/01:00am 16.1 18.1 15.9 99 0.1 CALM 0 0 0 0 1021.9 1021.9 0.0
24/12:30am 15.9 16.5 15.7 99 0.1 SE 7 7 4 4 1022.1 1022.1 0.0
24/12:00am 15.6 17.3 15.3 98 0.2 CALM 0 0 0 0 1022.3 1022.3 0.0
 
Date/Time
EST
Temp
°C
App
Temp
°C
Dew
Point
°C
Rel
Hum
%
Delta-T
°C
Wind Press
QNH
hPa
Press
MSL
hPa
Rain since
9am
mm
Dir  Spd
km/h
Gust
km/h
Spd
kts
Gust
kts
23/11:30pm 15.3 16.9 15.0 98 0.2 CALM 0 0 0 0 1022.6 1022.6 0.0
23/11:20pm 15.4 17.1 15.1 98 0.2 CALM 0 0 0 0 1022.7 1022.7 0.0
23/11:16pm 15.5 17.2 15.2 98 0.2 CALM 0 0 0 0 1022.8 1022.8 0.0
23/11:01pm 15.2 16.3 14.7 97 0.3 NNW 2 6 1 3 1022.9 1022.9 0.0
23/11:00pm 15.3 16.5 14.8 97 0.3 NNW 2 6 1 3 1022.9 1022.9 0.0
23/10:52pm 15.8 16.4 15.3 97 0.3 NNW 6 6 3 3 1023.0 1023.0 0.0
23/10:30pm 15.9 16.3 15.4 97 0.3 N 7 7 4 4 1023.2 1023.2 0.0
23/10:09pm 15.5 15.8 14.9 96 0.3 NNE 7 9 4 5 1023.3 1023.3 0.0
23/10:00pm 15.0 15.0 14.2 95 0.5 NNE 7 9 4 5 1023.4 1023.4 0.0
23/09:30pm 16.1 17.9 15.5 96 0.3 CALM 0 0 0 0 1023.5 1023.5 0.0
23/09:00pm 16.4 17.5 15.6 95 0.5 SSW 4 9 2 5 1023.4 1023.4 0.0
23/08:30pm 16.5 17.0 15.5 94 0.6 SSW 7 9 4 5 1023.4 1023.4 0.0
23/08:23pm 16.5 16.9 15.4 93 0.6 S 7 9 4 5 1023.4 1023.4 0.0
23/08:00pm 17.0 17.3 15.9 93 0.6 SSW 9 11 5 6 1023.4 1023.4 0.0
23/07:53pm 16.8 17.4 15.7 93 0.6 SSW 7 11 4 6 1023.4 1023.4 0.0
23/07:30pm 17.1 17.3 15.8 92 0.8 SSW 9 11 5 6 1023.3 1023.3 0.0
23/07:00pm 17.2 17.4 15.7 91 0.9 SW 9 13 5 7 1023.2 1023.2 0.0
23/06:30pm 17.2 16.5 15.5 90 1.0 SW 13 17 7 9 1022.9 1022.9 0.0
23/06:00pm 17.2 16.8 15.2 88 1.2 SSW 11 15 6 8 1022.6 1022.6 0.0
23/05:30pm 17.7 17.3 15.1 85 1.5 SSW 11 17 6 9 1022.5 1022.5 0.0
23/05:00pm 18.3 17.5 15.2 82 1.8 SSW 13 17 7 9 1022.4 1022.4 0.0
23/04:30pm 19.0 17.8 15.1 78 2.3 S 15 20 8 11 1022.2 1022.2 0.0
23/04:00pm 19.3 18.0 14.8 75 2.6 S 15 20 8 11 1022.2 1022.2 0.0
23/03:30pm 19.7 18.2 14.3 71 3.1 SSW 15 20 8 11 1022.1 1022.1 0.0
23/03:00pm 20.4 19.3 14.3 68 3.5 SW 13 17 7 9 1022.1 1022.1 0.0
23/02:30pm 20.2 18.7 14.1 68 3.5 SW 15 19 8 10 1022.2 1022.2 0.0

Latest Capital City Observations: Canberra | Sydney | Melbourne | Brisbane | Adelaide | Perth | Hobart | Darwin

Other Formats:

Comma delimited format used in spreadsheet applications
http://www.bom.gov.au/fwo/IDV60901/IDV60901.94870.axf

JavaScript Object Notation format (JSON) in row-major order
http://www.bom.gov.au/fwo/IDV60901/IDV60901.94870.json